Overview Statistics Trail Chart Weather Telemetry Raw packets
 

This is the latest recevied weather packets stored in our database for station/object KU4DD. If no packets are shown the sender has not sent any weather packets the latest 10 day(s).

<< 8 9 10 11 12 13 14 >>
Time Temp. Humidity Pressure Rain* Wind** Luminosity Snow
1788222600 27.22° C 79% 1017.9 hPa 0 mm - 0 W/m² -
1788221977 27.78° C 76% 1017.9 hPa 0 mm - 0 W/m² -
1788221657 27.78° C 76% 1017.9 hPa 0 mm - 0 W/m² -
1788220413 28.33° C 76% 1017.9 hPa 0 mm - 0 W/m² -
1788219794 28.89° C 75% 1017.6 hPa 0 mm - 0 W/m² -
1788219477 29.44° C 75% 1017.6 hPa 0 mm - 5 W/m² -
1788219165 30° C 73% 1017.6 hPa 0 mm - 7 W/m² -
1788216683 32.78° C 61% 1017.6 hPa 0 mm - 30 W/m² -
1788209017 34.44° C 52% 1017.9 hPa 0 mm - 561 W/m² -
1788202848 33.33° C 55% 1019 hPa 0 mm - 821 W/m² -
1788201615 33.33° C 55% 1019 hPa 0 mm - 856 W/m² -
1788195817 32.22° C 62% 1019.6 hPa 0 mm - 898 W/m² -
1788186895 29.44° C 74% 1020 hPa 0 mm - 671 W/m² -
1788184730 28.33° C 82% 1020 hPa 0 mm - 564 W/m² -
1788181319 26.11° C 93% 1020 hPa 0 mm - 381 W/m² -
1788177603 23.33° C 98% 1019.6 hPa 0 mm - 160 W/m² -
1788176356 22.22° C 98% 1019.6 hPa 0 mm - 105 W/m² -
1788175723 21.67° C 98% 1019.6 hPa 0 mm - 81 W/m² -
1788175405 21.67° C 98% 1019.6 hPa 0 mm - 56 W/m² -
1788173559 21.67° C 98% 1019.6 hPa 0 mm - 5 W/m² -
1788173238 21.67° C 98% 1019.6 hPa 0 mm - 0 W/m² -
1788172297 21.11° C 98% 1019.3 hPa 0 mm - 0 W/m² -
1788171661 20.56° C 98% 1019.6 hPa 0 mm - 0 W/m² -
1788171347 20.56° C 98% 1019.3 hPa 0 mm - 0 W/m² -
1788168865 21.11° C 98% 1019.6 hPa 0 mm - 0 W/m² -

* Rain latest hour (hover to see other rain measurements)
** Current wind speed in m/s (hover to see current wind gust speed)